Daily Tabular Data
[Select Refresh to Update]


2/15/19
Time         Wind Dir   Wind Spd  Wind Gust     Hum In   Humidity    Temp In       Temp  Raw Barom   Tot Rain Wind Chill Heat Ix In Heat Index  Dew Point  DailyRain   HourRain   RainRate
                            mph        mph          %          %         F         F         in         in         F         F         F         F         in         in      in/hr
12:00am           246          0          0         58         97       64.0       52.7      29.20      16.11       52.7       65.6       59.4       51.9       0.00       0.00      0.000
12:30am           246          0          0         58         97       63.9       52.6      29.20      16.11       52.6       65.5       59.3       51.8       0.00       0.00      0.000
1:00am            246          0          0         58         95       63.9       53.0      29.20      16.11       53.0       65.5       59.4       51.6       0.00       0.00      0.000
1:30am            246          0          0         58         96       63.8       52.3      29.20      16.11       52.3       65.4       58.9       51.2       0.00       0.00      0.000
2:00am            246          0          0         58         96       63.7       51.6      29.20      16.11       51.6       65.3       58.2       50.5       0.00       0.00      0.000
2:30am            246          0          0         58         96       63.7       51.2      29.20      16.11       51.2       65.3       57.8       50.1       0.00       0.00      0.000
3:00am            246          0          0         57         96       63.6       50.6      29.20      16.11       50.6       65.1       57.2       49.5       0.00       0.00      0.000
3:30am            248          0          0         57         96       63.5       49.7      29.20      16.11       49.7       65.0       56.3       48.6       0.00       0.00      0.000
4:00am            248          0          0         57         96       63.4       50.2      29.21      16.11       50.2       64.9       56.8       49.1       0.00       0.00      0.000
4:30am            248          0          0         57         96       63.3       50.0      29.23      16.11       50.0       64.8       56.6       48.9       0.00       0.00      0.000
5:00am            300          0          0         57         96       63.3       49.3      29.23      16.11       49.3       64.8       55.9       48.2       0.00       0.00      0.000
5:30am            313          0          0         57         96       63.2       50.3      29.23      16.11       50.3       64.7       56.9       49.2       0.00       0.00      0.000
6:00am             53          0          0         57         95       63.1       50.1      29.24      16.11       50.1       64.6       56.5       48.7       0.00       0.00      0.000
6:30am             30          0          0         57         95       63.0       49.5      29.26      16.11       49.5       64.5       55.9       48.1       0.00       0.00      0.000
7:00am             30          0          0         57         95       62.9       49.7      29.27      16.11       49.7       64.4       56.1       48.3       0.00       0.00      0.000
7:30am             51          0          0         57         92       62.8       50.6      29.26      16.11       50.6       64.3       56.5       48.4       0.00       0.00      0.000
8:00am             51          0          0         56         93       62.8       55.4      29.28      16.11       55.4       64.2       61.5       53.4       0.00       0.00      0.000
8:30am             51          0          0         56         88       63.0       58.9      29.29      16.11       58.9       64.4       64.2       55.4       0.00       0.00      0.000
9:00am            248          0          0         55         85       63.7       57.3      29.29      16.11       57.3       65.0       62.2       52.8       0.00       0.00      0.000
9:30am            230          0          0         55         85       63.7       56.6      29.30      16.11       56.6       65.0       61.5       52.1       0.00       0.00      0.000
10:00am           246          0          0         55         82       63.6       56.7      29.30      16.11       56.7       64.9       61.2       51.3       0.00       0.00      0.000
10:30am           251          0          0         56         72       63.4       56.8      29.30      16.11       56.8       64.8       60.0       47.9       0.00       0.00      0.000
11:00am           188          0          5         56         79       63.5       60.8      29.30      16.11       60.8       64.9       64.9       54.3       0.00       0.00      0.000
11:30am           246          0          7         56         76       63.6       58.9      29.30      16.11       58.9       65.0       62.6       51.4       0.00       0.00      0.000
12:00pm           122          3          8         56         62       63.7       61.5      29.30      16.11       61.5       65.1       63.5       48.4       0.00       0.00      0.000
12:30pm           199          0         10         55         66       63.9       60.6      29.29      16.11       60.6       65.2       63.1       49.2       0.00       0.00      0.000
1:00pm            232          2         13         55         64       64.1       60.1      29.29      16.11       60.1       65.4       62.4       47.9       0.00       0.00      0.000
1:30pm             67          8         11         55         58       64.2       60.2      29.28      16.11       59.2       65.5       61.8       45.4       0.00       0.00      0.000
2:00pm            192          3         11         55         63       64.3       59.6      29.26      16.11       59.6       65.6       61.7       47.0       0.00       0.00      0.000
2:30pm            109          6         12         54         65       64.5       61.7      29.25      16.11       61.6       65.7       64.1       49.8       0.00       0.00      0.000
3:00pm            228          2          8         54         62       64.5       60.9      29.25      16.11       60.9       65.7       62.9       47.8       0.00       0.00      0.000
3:30pm            109          7         11         54         65       64.7       59.9      29.25      16.11       59.1       65.9       62.3       48.1       0.00       0.00      0.000
4:00pm            232          2          8         54         71       64.8       59.3      29.26      16.11       59.3       66.0       62.4       49.9       0.00       0.00      0.000
4:30pm            170          6         11         54         75       64.8       57.2      29.25      16.11       56.2       66.0       60.8       49.4       0.00       0.00      0.000
5:00pm            110          0         12         55         89       64.9       56.4      29.25      16.11       56.4       66.2       61.9       53.2       0.00       0.00      0.000
5:30pm            216          3         10         54         78       64.8       55.2      29.24      16.11       55.2       66.0       59.2       48.5       0.00       0.00      0.000
6:00pm            188          0          9         54         89       64.9       54.9      29.24      16.12       54.9       66.1       60.4       51.7       0.01       0.01      0.000
6:30pm            144          8         10         54         83       64.8       54.9      29.25      16.12       52.7       66.0       59.5       49.8       0.01       0.01      0.000
7:00pm            238          2         10         54         89       64.8       52.3      29.26      16.12       52.3       66.0       57.8       49.2       0.01       0.01      0.000
7:30pm            185          0          4         54         92       64.8       53.0      29.26      16.13       53.0       66.0       58.9       50.7       0.02       0.01      0.000
8:00pm            167          8          9         54         94       64.7       50.8      29.26      16.18       47.7       65.9       57.0       49.1       0.07       0.06      0.230
8:30pm            217          1         13         55         95       64.5       51.2      29.25      16.19       51.2       65.8       57.6       49.8       0.08       0.07      0.000
9:00pm            243          0          5         55         96       64.4       52.0      29.26      16.20       52.0       65.7       58.6       50.9       0.09       0.07      0.000
9:30pm            219          0          3         56         96       64.5       53.0      29.26      16.20       53.0       65.9       59.6       51.9       0.09       0.02      0.000
10:00pm           255          0          0         55         95       64.4       51.3      29.27      16.20       51.3       65.7       57.7       49.9       0.09       0.01      0.000
10:30pm           243          0          2         56         96       64.3       52.8      29.27      16.20       52.8       65.7       59.4       51.7       0.09       0.00      0.000
11:00pm           253          0          0         57         94       64.2       51.0      29.27      16.20       51.0       65.7       57.2       49.3       0.09       0.00      0.000
11:30pm           239          0          2         56         95       64.2       51.5      29.27      16.20       51.5       65.6       57.9       50.1       0.09       0.00      0.000